Minneapolis-St Paul International/Wold-Chamberlain Airport
KMSP : rendu visible

Aérodrome :











RETROUVEZ-NOUS SUR...

 
LOGIN :

S'inscrire | Disclaimer

   EN    FR    IT 

 









Légende :    VFR   VFR Marginal   IFR   IFR Intensif   IFR Très Intensif
Visi : 
Plafond : 
>= 8 km
>= 3000ft
5 à 8 km
1000 à 3000 ft
1500m à 5 km
500 à 1000 ft
800 à 1500m
200 à 500 ft
< 800m
< 200 ft
Symboles :   Orages  Brouillard  Fortes neiges  Fortes précipitations  Vent > 20 kt






- Altitude de l'aérodrome : 841 ft
- Code IATA : MSP


KMSP - Minneapolis-St Paul International/Wold-Chamberlain

DERNIER METAR :
  • 080553Z 02006KT 10SM BKN070 BKN110 12/01 A2973 RMK AO2 SLP066 T01220006 10200 20122 402110094 50005

METARs EXPIRÉS :
  • 080453Z 02005KT 10SM BKN070 BKN095 OVC120 13/01 A2973 RMK AO2 SLP069 T01330011
  • 080353Z 36007KT 10SM SCT090 SCT250 14/02 A2972 RMK AO2 SLP065 T01390017

TAF KMSP
Valide du 08 à 06h jusqu'au 09 à 12h UTC


080532Z 0806/0912 32006KT P6SM FEW100
FM081300 31008KT P6SM BKN120
FM081800 30016G25KT P6SM SCT150



MET'MAP, la Météo Aéronautique d'un coup d'oeil ! - Copyright ORBIFLY Décembre 2007 - Disclaimer

ORBIFLY MET'MAP TEAM :

Programmation & Développement : Alexandra Zaïnal
Sur une idée originale de : Baudouin d'Aumeries
Assistance à la programmation : Marc-Olivier Méhu
Soutien technique & logistique : Manuel Goepfert

Contact : metmap@orbifly.com




SOURCES & CREDITS :

   NOAA       Earth
Advisory